Time;durP1;ratioP1;P1;durP2;ratioP2;P2;SDS_P1;SDS_P2;PMS_P1;PMS_P2;Temp;Humidity;BMP_temperature;BMP_pressure;BME280_temperature;BME280_humidity;BME280_pressure;Samples;Min_cycle;Max_cycle;Signal;HPM_P1;HPM_P2
2022/01/06 00:06:32;;;;;;;10.60;3.00;;;;;;;3.44;87.65;100285.13;20937638;28;20106;-70
2022/01/06 00:26:38;;;;;;;19.47;3.87;;;;;;;3.41;89.32;100299.78;20939653;28;20055;-70
2022/01/06 00:36:41;;;;;;;12.02;3.80;;;;;;;3.49;89.84;100305.91;20939041;28;20045;-71
2022/01/06 00:46:43;;;;;;;12.30;2.85;;;;;;;3.54;89.47;100306.81;20942302;28;20045;-71
2022/01/06 00:56:44;;;;;;;14.38;3.78;;;;;;;3.53;89.92;100305.09;20935994;28;20456;-71
2022/01/06 01:06:46;;;;;;;24.63;8.15;;;;;;;3.48;90.71;100310.22;20945274;28;20048;-70
2022/01/06 01:16:54;;;;;;;17.40;4.45;;;;;;;3.56;89.70;100333.59;20945822;28;20102;-70
2022/01/06 01:26:56;;;;;;;16.38;5.32;;;;;;;3.55;90.56;100334.47;20942641;28;20118;-71
2022/01/06 01:36:57;;;;;;;13.68;3.28;;;;;;;3.56;91.12;100344.81;20949351;28;20488;-71
2022/01/06 01:47:02;;;;;;;12.98;3.58;;;;;;;3.63;91.52;100352.66;20943236;28;20051;-71
2022/01/06 01:57:04;;;;;;;11.43;3.25;;;;;;;3.71;91.77;100341.53;20943913;28;20045;-69
2022/01/06 02:07:05;;;;;;;16.35;3.80;;;;;;;3.77;91.49;100351.97;20945846;28;20052;-71
2022/01/06 02:17:07;;;;;;;16.05;3.97;;;;;;;3.74;92.06;100374.38;20934628;28;20072;-70
2022/01/06 02:27:08;;;;;;;12.57;3.55;;;;;;;3.78;92.36;100389.94;20935109;28;20053;-70
2022/01/06 02:37:11;;;;;;;12.88;3.67;;;;;;;3.77;93.56;100390.81;21037524;22;20036;-81
2022/01/06 02:47:14;;;;;;;14.50;3.40;;;;;;;3.78;93.59;100400.31;21002227;28;20102;-81
2022/01/06 02:57:15;;;;;;;13.48;3.28;;;;;;;3.78;93.20;100412.38;21034678;28;20074;-81
2022/01/06 03:07:17;;;;;;;11.57;3.55;;;;;;;3.70;93.51;100421.81;21024165;28;20062;-81
2022/01/06 03:17:19;;;;;;;12.00;3.15;;;;;;;3.80;92.89;100431.41;21018784;28;20458;-82
2022/01/06 03:27:21;;;;;;;10.25;3.45;;;;;;;3.76;93.75;100448.63;21022217;28;20444;-81
2022/01/06 03:37:23;;;;;;;15.85;3.70;;;;;;;3.69;94.35;100438.16;21026186;28;20459;-81
2022/01/06 03:47:24;;;;;;;11.60;3.10;;;;;;;3.57;95.11;100451.84;21036915;28;20108;-81
2022/01/06 03:57:26;;;;;;;13.80;3.58;;;;;;;3.48;95.51;100454.28;21048351;28;20067;-82
2022/01/06 04:07:27;;;;;;;15.50;4.28;;;;;;;3.29;97.17;100456.63;21025042;28;20040;-81
2022/01/06 04:17:29;;;;;;;11.05;3.35;;;;;;;3.26;96.69;100456.59;21035135;28;20447;-81
2022/01/06 04:27:31;;;;;;;14.18;4.30;;;;;;;3.10;98.22;100470.13;21045852;28;20045;-82
2022/01/06 04:37:32;;;;;;;17.67;3.67;;;;;;;3.03;99.09;100489.84;21022641;28;20339;-81
2022/01/06 04:47:34;;;;;;;19.20;5.38;;;;;;;3.03;98.80;100494.16;21038380;28;20068;-82
2022/01/06 04:57:36;;;;;;;14.80;3.28;;;;;;;3.04;98.23;100512.28;21061709;28;20087;-81
2022/01/06 05:07:37;;;;;;;8.50;3.35;;;;;;;2.91;99.75;100524.97;21033959;28;20374;-81
2022/01/06 05:17:42;;;;;;;16.05;3.85;;;;;;;2.82;99.98;100526.56;21027568;28;20041;-81
2022/01/06 05:27:43;;;;;;;19.63;4.75;;;;;;;2.83;100.00;100549.00;21029661;28;20041;-82
2022/01/06 05:37:45;;;;;;;11.95;3.92;;;;;;;2.92;99.84;100548.28;21016034;28;20058;-81
2022/01/06 05:47:47;;;;;;;13.60;3.80;;;;;;;2.66;100.00;100560.75;21031005;28;20474;-81
2022/01/06 05:57:50;;;;;;;13.05;4.45;;;;;;;2.47;100.00;100569.00;21013030;28;20045;-81
2022/01/06 06:07:51;;;;;;;18.00;5.93;;;;;;;2.25;100.00;100578.91;21035490;28;20063;-81
2022/01/06 06:17:54;;;;;;;13.93;4.93;;;;;;;2.10;100.00;100588.03;21036698;28;20520;-82
2022/01/06 06:27:56;;;;;;;13.98;4.90;;;;;;;2.02;100.00;100624.91;21023638;28;20541;-82
2022/01/06 06:37:57;;;;;;;15.95;5.90;;;;;;;2.05;100.00;100626.66;21042418;28;20040;-83
2022/01/06 06:47:59;;;;;;;15.63;5.53;;;;;;;2.27;100.00;100630.59;21010662;28;20032;-83
2022/01/06 06:58:02;;;;;;;18.80;6.43;;;;;;;2.46;100.00;100649.94;21012172;28;20053;-83
2022/01/06 07:08:04;;;;;;;21.20;7.38;;;;;;;2.36;100.00;100653.19;21030319;28;20526;-83
2022/01/06 07:18:05;;;;;;;21.50;6.93;;;;;;;2.32;100.00;100657.41;21029256;28;20053;-83
2022/01/06 07:28:07;;;;;;;21.20;6.65;;;;;;;2.36;100.00;100666.09;21031173;28;20056;-83
2022/01/06 07:38:08;;;;;;;17.60;6.28;;;;;;;2.48;100.00;100672.38;21036369;28;20154;-82
2022/01/06 07:48:18;;;;;;;19.80;6.57;;;;;;;2.52;100.00;100678.50;21035011;28;20522;-82
2022/01/06 07:58:20;;;;;;;15.85;5.97;;;;;;;2.64;100.00;100689.09;21042726;28;20127;-84
2022/01/06 08:08:21;;;;;;;18.27;5.90;;;;;;;2.68;100.00;100702.94;21015604;28;20043;-83
2022/01/06 08:18:23;;;;;;;15.52;4.80;;;;;;;2.61;100.00;100716.59;21017342;28;20040;-83
2022/01/06 08:28:28;;;;;;;15.20;4.47;;;;;;;2.47;100.00;100726.63;21056828;28;20045;-82
2022/01/06 08:38:29;;;;;;;;;;;;;;;2.38;100.00;100735.03;21047260;28;20078;-84
2022/01/06 08:48:31;;;;;;;13.70;4.60;;;;;;;2.30;100.00;100734.88;21033192;22;19920;-84
2022/01/06 08:58:32;;;;;;;12.73;3.95;;;;;;;2.33;100.00;100748.69;21028169;28;20081;-83
2022/01/06 09:08:34;;;;;;;12.13;3.80;;;;;;;2.56;100.00;100757.84;21042994;28;20058;-83
2022/01/06 09:18:36;;;;;;;14.63;5.05;;;;;;;2.87;100.00;100761.09;21032444;28;20097;-83
2022/01/06 09:28:37;;;;;;;12.15;4.10;;;;;;;3.34;96.91;100768.09;21017236;28;20105;-82
2022/01/06 09:38:41;;;;;;;11.85;3.00;;;;;;;3.56;94.79;100777.16;21023065;28;20036;-83
2022/01/06 09:48:47;;;;;;;8.45;2.78;;;;;;;3.80;92.52;100786.22;20952888;28;20420;-83
2022/01/06 09:58:49;;;;;;;9.85;2.53;;;;;;;4.09;92.27;100797.09;20924935;28;20057;-84
2022/01/06 10:08:59;;;;;;;10.35;3.15;;;;;;;4.36;90.59;100804.47;20948570;28;20044;-83
2022/01/06 10:19:10;;;;;;;11.50;3.50;;;;;;;4.60;88.28;100803.97;20951883;28;20041;-83
2022/01/06 10:29:12;;;;;;;11.93;3.45;;;;;;;4.73;87.46;100799.81;20936112;28;20077;-82
2022/01/06 10:39:13;;;;;;;10.13;3.38;;;;;;;4.98;87.90;100793.25;20949790;28;20409;-82
2022/01/06 10:49:17;;;;;;;7.90;3.17;;;;;;;5.03;83.29;100797.66;20901805;28;20053;-82
2022/01/06 10:59:24;;;;;;;12.13;3.47;;;;;;;5.27;83.03;100794.50;20956045;28;20049;-80
2022/01/06 11:09:26;;;;;;;11.68;3.00;;;;;;;5.19;80.33;100790.06;20912897;28;20045;-80
2022/01/06 11:19:28;;;;;;;10.90;2.92;;;;;;;4.91;80.81;100796.63;20966406;28;20040;-83
2022/01/06 11:29:42;;;;;;;14.32;3.22;;;;;;;4.96;81.78;100790.63;20902281;28;20456;-83
2022/01/06 11:39:44;;;;;;;12.60;3.15;;;;;;;5.15;81.13;100794.34;20983246;28;20044;-83
2022/01/06 11:49:45;;;;;;;15.48;4.80;;;;;;;5.17;78.94;100794.34;20875258;28;1211423;-82
2022/01/06 11:59:47;;;;;;;11.32;3.65;;;;;;;5.22;77.70;100785.78;20928869;28;20044;-82
2022/01/06 12:09:56;;;;;;;9.88;2.65;;;;;;;5.34;77.90;100788.50;20945072;28;20060;-83
2022/01/06 12:19:58;;;;;;;10.93;2.67;;;;;;;5.64;77.61;100784.50;21002829;28;20447;-83
2022/01/06 12:30:04;;;;;;;12.43;2.58;;;;;;;6.00;74.29;100772.78;20938686;28;20044;-83
2022/01/06 12:40:07;;;;;;;13.73;3.08;;;;;;;6.34;71.45;100759.19;20995762;28;20048;-82
2022/01/06 12:50:49;;;;;;;10.30;2.67;;;;;;;6.18;71.05;100765.16;20988932;28;20045;-83
2022/01/06 13:01:10;;;;;;;11.10;2.38;;;;;;;6.05;72.11;100765.88;20973594;28;20067;-83
2022/01/06 13:11:12;;;;;;;7.85;2.40;;;;;;;6.15;71.93;100757.31;20971944;28;20068;-83
2022/01/06 13:21:22;;;;;;;20.60;3.70;;;;;;;6.27;73.76;100778.19;20967410;28;20075;-84
2022/01/06 13:31:25;;;;;;;12.13;2.47;;;;;;;6.03;71.71;100780.59;20957487;28;20049;-83
2022/01/06 13:41:26;;;;;;;10.60;2.75;;;;;;;5.96;73.67;100781.41;20970471;28;20614;-83
2022/01/06 13:51:28;;;;;;;13.95;3.70;;;;;;;6.12;76.24;100793.66;20988976;28;20041;-83
2022/01/06 14:01:30;;;;;;;14.90;5.15;;;;;;;6.12;83.07;100793.66;20939062;28;20040;-82
2022/01/06 14:11:32;;;;;;;13.57;4.70;;;;;;;6.19;86.33;100790.28;20933679;28;20478;-83
2022/01/06 14:21:33;;;;;;;17.42;5.07;;;;;;;6.03;89.08;100810.03;20972251;28;20052;-82
2022/01/06 14:31:35;;;;;;;14.10;5.20;;;;;;;6.04;86.38;100823.94;20969132;28;20090;-82
2022/01/06 14:41:37;;;;;;;18.70;5.20;;;;;;;5.69;87.14;100844.31;20949062;28;20052;-82
2022/01/06 14:51:38;;;;;;;13.90;2.97;;;;;;;5.10;87.90;100847.91;20993117;28;20056;-84
2022/01/06 15:01:40;;;;;;;22.17;5.38;;;;;;;4.88;90.95;100842.41;20935124;28;20094;-83
2022/01/06 15:11:41;;;;;;;13.57;4.03;;;;;;;4.62;92.88;100843.75;20931554;28;20056;-83
2022/01/06 15:21:43;;;;;;;17.83;5.88;;;;;;;4.40;93.47;100836.47;20964692;28;20122;-83
2022/01/06 15:31:44;;;;;;;40.20;15.25;;;;;;;4.12;96.11;100851.59;20956293;28;20040;-82
2022/01/06 15:41:47;;;;;;;37.67;13.50;;;;;;;3.84;97.52;100864.03;20960394;28;20456;-82
2022/01/06 15:51:48;;;;;;;39.28;14.95;;;;;;;3.61;98.83;100865.28;20911398;28;20045;-83
2022/01/06 16:12:01;;;;;;;25.40;10.65;;;;;;;3.46;97.65;100898.63;20927971;28;20045;-83
2022/01/06 16:22:03;;;;;;;18.88;7.88;;;;;;;3.54;96.75;100907.41;20906049;28;20121;-83
2022/01/06 16:32:17;;;;;;;20.88;9.15;;;;;;;3.53;98.08;100909.13;20907990;28;20099;-83
2022/01/06 16:42:19;;;;;;;23.70;10.90;;;;;;;3.46;95.68;100911.56;20947396;28;20052;-84
2022/01/06 16:52:21;;;;;;;21.10;9.32;;;;;;;3.28;96.82;100923.28;20988079;28;20048;-85
2022/01/06 17:02:23;;;;;;;21.55;9.98;;;;;;;3.25;97.24;100932.66;20981275;28;20052;-83
2022/01/06 17:12:24;;;;;;;26.90;11.32;;;;;;;3.03;97.17;100936.50;20990017;28;20057;-84
2022/01/06 17:22:26;;;;;;;26.17;8.20;;;;;;;2.74;98.64;100936.66;20951518;28;20088;-83
2022/01/06 17:32:27;;;;;;;22.08;8.75;;;;;;;2.50;99.43;100930.91;20956044;28;20098;-83
2022/01/06 17:42:29;;;;;;;19.02;8.43;;;;;;;2.36;100.00;100946.03;20941279;28;20049;-83
2022/01/06 17:52:30;;;;;;;21.33;8.93;;;;;;;2.23;100.00;100934.50;20951889;28;20115;-82
2022/01/06 18:02:36;;;;;;;26.40;10.45;;;;;;;2.11;100.00;100943.63;20980373;28;20089;-83
2022/01/06 18:12:38;;;;;;;27.00;10.15;;;;;;;1.98;100.00;100939.84;20943749;28;20108;-83
2022/01/06 18:22:39;;;;;;;30.02;11.35;;;;;;;1.94;100.00;100949.19;20987387;28;20045;-83
2022/01/06 18:32:42;;;;;;;26.55;13.13;;;;;;;2.13;100.00;100947.13;20930706;28;20083;-81
2022/01/06 18:42:44;;;;;;;21.17;10.75;;;;;;;2.01;100.00;100947.66;20935164;28;20049;-81
2022/01/06 18:52:45;;;;;;;26.80;10.63;;;;;;;1.98;100.00;100939.84;20934240;28;20434;-81
2022/01/06 19:02:46;;;;;;;25.02;10.45;;;;;;;1.90;100.00;100946.50;20958917;28;20124;-80
2022/01/06 19:12:49;;;;;;;26.80;10.48;;;;;;;1.82;100.00;100945.38;20977934;28;20110;-80
2022/01/06 19:22:51;;;;;;;22.70;10.43;;;;;;;1.73;100.00;100943.44;20983337;28;20052;-82
2022/01/06 19:32:53;;;;;;;27.23;12.13;;;;;;;1.86;100.00;100936.91;20966297;28;20498;-81
2022/01/06 19:42:55;;;;;;;25.88;12.55;;;;;;;1.66;100.00;100955.28;20934816;28;20664;-83
2022/01/06 19:52:56;;;;;;;28.73;13.55;;;;;;;1.45;100.00;100946.91;20966070;28;20067;-81
2022/01/06 20:02:58;;;;;;;35.00;18.25;;;;;;;1.29;100.00;100955.88;20965514;28;20071;-81
2022/01/06 20:13:00;;;;;;;33.20;18.77;;;;;;;1.11;100.00;100961.38;20937336;28;20098;-83
2022/01/06 20:23:02;;;;;;;31.77;15.10;;;;;;;1.00;100.00;100936.91;20934234;28;20124;-82
2022/01/06 20:33:04;;;;;;;36.90;18.20;;;;;;;0.97;100.00;100937.72;20935635;28;20441;-81
2022/01/06 20:43:05;;;;;;;29.52;13.75;;;;;;;0.81;100.00;100938.03;20914738;28;20053;-83
2022/01/06 20:53:08;;;;;;;33.03;13.20;;;;;;;0.70;100.00;100937.69;20915861;28;20049;-81
2022/01/06 21:03:10;;;;;;;28.45;13.45;;;;;;;0.68;100.00;100939.34;20910402;28;20040;-82
2022/01/06 21:13:13;;;;;;;23.63;12.38;;;;;;;0.58;100.00;100931.28;20915695;28;20115;-81
2022/01/06 21:23:15;;;;;;;32.40;13.70;;;;;;;0.60;100.00;100927.91;20929283;28;20099;-83
2022/01/06 21:33:19;;;;;;;29.42;14.50;;;;;;;0.49;100.00;100934.44;20939138;28;20097;-83
2022/01/06 21:43:20;;;;;;;26.75;12.30;;;;;;;0.32;100.00;100941.56;20979268;28;20098;-83
2022/01/06 21:53:26;;;;;;;31.25;15.32;;;;;;;0.23;100.00;100942.13;20984024;28;20045;-84
2022/01/06 22:03:28;;;;;;;42.95;20.02;;;;;;;0.23;100.00;100947.28;20954574;28;20066;-83
2022/01/06 22:13:30;;;;;;;50.05;25.25;;;;;;;0.13;100.00;100942.63;20980681;28;20048;-83
2022/01/06 22:23:32;;;;;;;32.92;16.33;;;;;;;0.06;100.00;100940.69;20973101;28;20110;-83
2022/01/06 22:33:34;;;;;;;26.42;14.50;;;;;;;0.05;100.00;100936.34;20971913;28;20669;-83
2022/01/06 22:43:35;;;;;;;42.42;18.90;;;;;;;-0.03;100.00;100924.91;20985065;28;20059;-82
2022/01/06 22:53:37;;;;;;;43.42;19.27;;;;;;;-0.14;100.00;100916.81;20946200;28;20053;-82
2022/01/06 23:03:40;;;;;;;43.38;18.13;;;;;;;-0.20;100.00;100895.09;20982475;28;20100;-84
2022/01/06 23:13:42;;;;;;;30.80;15.45;;;;;;;-0.31;100.00;100898.19;21009396;28;20733;-84
2022/01/06 23:23:43;;;;;;;38.78;16.33;;;;;;;-0.34;100.00;100890.34;20996156;28;20044;-84
2022/01/06 23:33:45;;;;;;;38.80;16.05;;;;;;;-0.39;100.00;100880.72;20929742;28;20479;-84
2022/01/06 23:43:47;;;;;;;31.00;16.10;;;;;;;-0.40;100.00;100872.13;20979843;28;20048;-84
2022/01/06 23:53:49;;;;;;;32.05;17.15;;;;;;;-0.45;100.00;100863.34;20972141;28;20544;-84
